Time;durP1;ratioP1;P1;durP2;ratioP2;P2;SDS_P1;SDS_P2;PMS_P1;PMS_P2;Temp;Humidity;BMP_temperature;BMP_pressure;BME280_temperature;BME280_humidity;BME280_pressure;Samples;Min_cycle;Max_cycle;Signal;HPM_P1;HPM_P2
2022/09/19 00:01:32;;;;;;;1.10;0.65;;;12.20;99.90;;;;;;4952053;28;20419;-78
2022/09/19 00:04:04;;;;;;;4.47;0.45;;;12.20;99.90;;;;;;4950302;28;20041;-77
2022/09/19 00:06:32;;;;;;;0.20;0.20;;;12.20;99.90;;;;;;4949906;29;20055;-77
2022/09/19 00:08:59;;;;;;;0.10;0.10;;;12.20;99.90;;;;;;4949875;28;20125;-77
2022/09/19 00:11:28;;;;;;;2.90;0.30;;;12.10;99.90;;;;;;4951164;28;20499;-75
2022/09/19 00:13:56;;;;;;;1.27;0.30;;;12.10;99.90;;;;;;4951150;28;20035;-76
2022/09/19 00:16:35;;;;;;;1.25;0.30;;;12.10;99.90;;;;;;4949008;29;20028;-75
2022/09/19 00:19:05;;;;;;;0.20;0.20;;;12.10;99.90;;;;;;4949534;29;20047;-75
2022/09/19 00:21:38;;;;;;;3.10;0.25;;;12.00;99.90;;;;;;4944472;28;20031;-75
2022/09/19 00:26:50;;;;;;;0.20;0.20;;;;;;;;;;4931648;29;20503;-74
2022/09/19 00:29:17;;;;;;;0.30;0.20;;;12.00;99.90;;;;;;4931581;29;20075;-74
2022/09/19 00:31:44;;;;;;;5.63;0.20;;;12.00;99.90;;;;;;4931331;29;20024;-74
2022/09/19 00:34:15;;;;;;;0.32;0.30;;;12.00;99.90;;;;;;4932418;29;20496;-74
2022/09/19 00:36:42;;;;;;;0.20;0.20;;;11.90;99.90;;;;;;4949807;28;20031;-74
2022/09/19 00:39:09;;;;;;;1.33;0.65;;;14.00;99.90;;;;;;4950405;28;20107;-73
2022/09/19 00:41:36;;;;;;;0.20;0.20;;;11.80;99.90;;;;;;4950653;28;20536;-74
2022/09/19 00:44:24;;;;;;;0.47;0.20;;;11.80;99.90;;;;;;4950375;28;20038;-74
2022/09/19 00:46:55;;;;;;;0.32;0.32;;;11.70;99.90;;;;;;4949953;29;20215;-74
2022/09/19 00:49:22;;;;;;;0.30;0.30;;;12.10;99.90;;;;;;4950182;28;20035;-76
2022/09/19 00:51:55;;;;;;;0.10;0.10;;;11.60;99.90;;;;;;4950161;28;20034;-75
2022/09/19 00:54:30;;;;;;;0.30;0.30;;;11.50;99.90;;;;;;4949804;28;20031;-75
2022/09/19 00:56:59;;;;;;;7.35;0.30;;;11.60;99.90;;;;;;4949569;29;20039;-74
2022/09/19 00:59:29;;;;;;;0.30;0.30;;;11.50;99.90;;;;;;4964422;28;20031;-74
2022/09/19 01:01:57;;;;;;;2.97;0.85;;;11.50;99.90;;;;;;4950299;28;20063;-74
2022/09/19 01:04:25;;;;;;;0.20;0.20;;;11.50;99.90;;;;;;4949762;28;20254;-74
2022/09/19 01:07:13;;;;;;;0.10;0.10;;;11.40;99.90;;;;;;4964553;28;20027;-75
2022/09/19 01:10:06;;;;;;;0.10;0.10;;;11.40;99.90;;;;;;4949605;28;20015;-75
2022/09/19 01:12:57;;;;;;;0.20;0.20;;;11.30;99.90;;;;;;4949633;28;20035;-74
2022/09/19 01:15:44;;;;;;;0.20;0.20;;;11.10;99.90;;;;;;4949702;28;20400;-74
2022/09/19 01:18:10;;;;;;;0.20;0.20;;;11.10;99.90;;;;;;4949681;28;20530;-74
2022/09/19 01:23:57;;;;;;;0.32;0.32;;;11.10;99.90;;;;;;4949807;29;20154;-74
2022/09/19 01:26:55;;;;;;;13.30;1.00;;;11.00;99.90;;;;;;4948738;28;20027;-74
2022/09/19 01:29:25;;;;;;;0.65;0.65;;;10.90;99.90;;;;;;4949669;28;20043;-74
2022/09/19 01:31:57;;;;;;;1.65;0.43;;;10.90;99.90;;;;;;4949556;28;20083;-75
2022/09/19 01:34:47;;;;;;;0.40;0.40;;;10.80;99.90;;;;;;4948753;28;20169;-76
2022/09/19 01:37:17;;;;;;;;;;;10.70;99.90;;;;;;4949442;28;20035;-74
2022/09/19 01:39:46;;;;;;;0.40;0.30;;;10.70;99.90;;;;;;4949468;29;19910;-74
2022/09/19 01:42:13;;;;;;;;;;;10.60;99.90;;;;;;4949912;29;20111;-75
2022/09/19 01:44:39;;;;;;;0.82;0.15;;;;;;;;;;4949703;29;19910;-75
2022/09/19 01:47:36;;;;;;;0.30;0.30;;;10.40;99.90;;;;;;4948716;28;20407;-74
2022/09/19 01:50:14;;;;;;;0.28;0.28;;;10.40;99.90;;;;;;4949193;28;20496;-74
2022/09/19 01:53:01;;;;;;;1.27;0.30;;;10.40;99.90;;;;;;4949285;28;20027;-76
2022/09/19 01:55:31;;;;;;;0.50;0.50;;;10.30;99.90;;;;;;4948874;28;20043;-76
2022/09/19 01:58:06;;;;;;;3.85;1.35;;;10.30;99.90;;;;;;4947759;28;20038;-75
2022/09/19 02:00:34;;;;;;;0.22;0.22;;;10.30;99.90;;;;;;4949151;28;20030;-74
2022/09/19 02:03:22;;;;;;;0.93;0.32;;;11.30;99.90;;;;;;4949124;28;20027;-75
2022/09/19 02:06:00;;;;;;;0.30;0.30;;;10.30;99.90;;;;;;4949089;28;20344;-76
2022/09/19 02:08:58;;;;;;;1.35;0.40;;;10.30;99.90;;;;;;4948520;28;20078;-76
2022/09/19 02:11:24;;;;;;;0.28;0.28;;;;;;;;;;4950584;28;20031;-74
2022/09/19 02:13:55;;;;;;;0.10;0.10;;;10.30;99.90;;;;;;4949839;28;20023;-75
2022/09/19 02:16:36;;;;;;;0.45;0.45;;;10.30;99.90;;;;;;4949544;28;20031;-74
2022/09/19 02:19:15;;;;;;;0.68;0.47;;;11.30;99.90;;;;;;4949432;28;20027;-75
2022/09/19 02:21:48;;;;;;;1.95;0.35;;;10.40;99.90;;;;;;4948927;28;20035;-74
2022/09/19 02:24:17;;;;;;;0.20;0.20;;;10.40;99.90;;;;;;4948669;28;20069;-74
2022/09/19 02:26:48;;;;;;;0.30;0.30;;;10.50;99.90;;;;;;4948124;28;20178;-74
2022/09/19 02:29:19;;;;;;;0.20;0.20;;;10.40;99.90;;;;;;4948692;28;20297;-74
2022/09/19 02:31:46;;;;;;;0.82;0.70;;;;;;;;;;4948629;28;20503;-74
2022/09/19 02:34:12;;;;;;;0.55;0.35;;;10.50;99.90;;;;;;4949073;28;20045;-74
2022/09/19 02:36:50;;;;;;;0.20;0.20;;;10.50;99.90;;;;;;4948600;29;20262;-74
2022/09/19 02:39:26;;;;;;;0.35;0.35;;;10.50;99.90;;;;;;4948337;28;20049;-73
2022/09/19 02:42:05;;;;;;;0.20;0.20;;;10.50;99.90;;;;;;4948971;28;20023;-74
2022/09/19 02:45:06;;;;;;;0.85;0.85;;;10.50;99.90;;;;;;4946862;28;20841;-74
2022/09/19 02:47:54;;;;;;;2.65;0.30;;;10.70;99.90;;;;;;4948074;29;20298;-74
2022/09/19 02:50:36;;;;;;;0.43;0.43;;;10.60;99.90;;;;;;4949404;28;20392;-74
2022/09/19 02:53:06;;;;;;;0.57;0.57;;;10.60;99.90;;;;;;4949091;28;20023;-74
2022/09/19 02:55:39;;;;;;;4.10;0.45;;;10.60;99.90;;;;;;4948720;28;20543;-74
2022/09/19 02:58:05;;;;;;;0.90;0.90;;;10.60;99.90;;;;;;4948425;28;20031;-74
2022/09/19 03:00:34;;;;;;;0.98;0.20;;;10.60;99.90;;;;;;4948352;28;20412;-74
2022/09/19 03:04:11;;;;;;;0.43;0.20;;;10.60;99.90;;;;;;4948461;28;20077;-74
2022/09/19 03:05:55;;;;;;;6.28;0.30;;;10.60;99.90;;;;;;4947947;28;20039;-73
2022/09/19 03:08:26;;;;;;;0.30;0.30;;;10.60;99.90;;;;;;4948170;28;20078;-73
2022/09/19 03:10:56;;;;;;;0.20;0.20;;;10.60;99.90;;;;;;4948823;29;20059;-74
2022/09/19 03:13:24;;;;;;;0.43;0.43;;;10.70;99.90;;;;;;4963187;28;20028;-75
2022/09/19 03:16:18;;;;;;;0.25;0.25;;;10.70;99.90;;;;;;4947840;28;20032;-74
2022/09/19 03:18:46;;;;;;;0.25;0.25;;;10.70;99.90;;;;;;4947556;29;20086;-76
2022/09/19 03:21:13;;;;;;;0.50;0.50;;;10.70;99.90;;;;;;4948916;28;20031;-75
2022/09/19 03:23:44;;;;;;;0.40;0.40;;;10.70;99.90;;;;;;4948174;28;20042;-74
2022/09/19 03:26:13;;;;;;;0.22;0.22;;;10.70;99.90;;;;;;4947780;28;20047;-75
2022/09/19 03:28:39;;;;;;;0.22;0.22;;;10.70;99.90;;;;;;4948198;28;20110;-74
2022/09/19 03:31:06;;;;;;;5.93;0.57;;;10.70;99.90;;;;;;4949394;29;20122;-76
2022/09/19 03:33:32;;;;;;;0.10;0.10;;;10.60;99.90;;;;;;4948187;28;20037;-74
2022/09/19 03:35:59;;;;;;;2.50;1.55;;;10.70;99.90;;;;;;4947732;29;20023;-76
2022/09/19 03:38:25;;;;;;;0.75;0.30;;;10.60;99.90;;;;;;4947788;28;20122;-75
2022/09/19 03:40:50;;;;;;;0.25;0.22;;;10.70;99.90;;;;;;4947686;28;20468;-76
2022/09/19 03:43:17;;;;;;;3.53;0.70;;;10.70;99.90;;;;;;4948143;29;20038;-76
2022/09/19 03:45:43;;;;;;;0.30;0.30;;;10.60;99.90;;;;;;4963061;28;20026;-74
2022/09/19 03:48:08;;;;;;;0.17;0.17;;;10.70;99.90;;;;;;4947390;29;20054;-75
2022/09/19 03:50:34;;;;;;;0.10;0.10;;;10.70;99.90;;;;;;4948565;29;20019;-75
2022/09/19 03:53:00;;;;;;;3.08;0.30;;;10.60;99.90;;;;;;4948269;28;20031;-74
2022/09/19 03:55:26;;;;;;;0.20;0.20;;;10.70;99.90;;;;;;4947045;28;20515;-74
2022/09/19 03:57:52;;;;;;;0.32;0.32;;;10.70;99.90;;;;;;4950462;29;20480;-75
2022/09/19 04:00:18;;;;;;;0.20;0.20;;;10.60;99.90;;;;;;4951228;28;20015;-76
2022/09/19 04:02:43;;;;;;;0.20;0.20;;;10.60;99.90;;;;;;4950831;28;20031;-74
2022/09/19 04:05:12;;;;;;;0.90;0.73;;;10.60;99.90;;;;;;4951503;28;20035;-75
2022/09/19 04:07:38;;;;;;;0.10;0.10;;;10.60;99.90;;;;;;4950558;28;20053;-74
2022/09/19 04:10:05;;;;;;;0.20;0.20;;;10.60;99.90;;;;;;4950739;28;20379;-75
2022/09/19 04:12:33;;;;;;;0.75;0.30;;;10.60;99.90;;;;;;4951218;29;20049;-75
2022/09/19 04:14:59;;;;;;;0.80;0.35;;;10.60;99.90;;;;;;4950804;28;20294;-74
2022/09/19 04:17:27;;;;;;;0.40;0.13;;;10.50;99.90;;;;;;4950279;28;20090;-74
2022/09/19 04:19:53;;;;;;;0.20;0.20;;;8.40;99.90;;;;;;4950716;28;20034;-75
2022/09/19 04:22:21;;;;;;;0.20;0.20;;;10.60;99.90;;;;;;4953335;28;20055;-74
2022/09/19 04:24:48;;;;;;;0.30;0.17;;;10.60;99.90;;;;;;4952971;28;20036;-74
2022/09/19 04:27:14;;;;;;;0.30;0.30;;;10.60;99.90;;;;;;4967554;28;20030;-74
2022/09/19 04:29:43;;;;;;;0.28;0.28;;;;;;;;;;4950302;28;20444;-74
2022/09/19 04:32:10;;;;;;;1.02;0.70;;;10.60;99.90;;;;;;4950333;28;20023;-74
2022/09/19 04:34:36;;;;;;;0.10;0.10;;;10.60;99.90;;;;;;4950434;28;20524;-75
2022/09/19 04:37:03;;;;;;;0.08;0.08;;;10.60;99.90;;;;;;4950633;28;20031;-74
2022/09/19 04:39:32;;;;;;;0.20;0.20;;;10.60;99.90;;;;;;4950401;28;20050;-74
2022/09/19 04:41:59;;;;;;;0.60;0.60;;;10.60;99.90;;;;;;4950650;28;20031;-74
2022/09/19 04:44:29;;;;;;;0.55;0.30;;;10.60;99.90;;;;;;4950026;28;20381;-74
2022/09/19 04:46:55;;;;;;;0.63;0.30;;;10.60;99.90;;;;;;4949805;28;20564;-74
2022/09/19 04:49:21;;;;;;;0.10;0.10;;;10.50;99.90;;;;;;4964958;28;20027;-75
2022/09/19 04:51:47;;;;;;;1.65;1.08;;;10.60;99.90;;;;;;4950328;28;20031;-73
2022/09/19 04:54:16;;;;;;;0.10;0.10;;;10.50;99.90;;;;;;4950249;28;20034;-74
2022/09/19 04:56:44;;;;;;;0.20;0.20;;;10.60;99.90;;;;;;4964414;28;20051;-75
2022/09/19 04:59:10;;;;;;;0.40;0.30;;;10.60;99.90;;;;;;4949900;28;20467;-74
2022/09/19 05:01:36;;;;;;;0.50;0.50;;;10.60;99.90;;;;;;4949767;28;20110;-74
2022/09/19 05:04:04;;;;;;;0.20;0.20;;;10.50;99.90;;;;;;4949985;29;20086;-75
2022/09/19 05:06:30;;;;;;;0.30;0.30;;;10.50;99.90;;;;;;4949582;28;20137;-74
2022/09/19 05:08:59;;;;;;;0.73;0.73;;;10.50;99.90;;;;;;4963567;28;20050;-74
2022/09/19 05:11:25;;;;;;;0.10;0.10;;;10.50;99.90;;;;;;4949867;29;20037;-74
2022/09/19 05:13:52;;;;;;;0.77;0.77;;;10.50;99.90;;;;;;4949855;29;20027;-75
2022/09/19 05:16:18;;;;;;;0.30;0.22;;;10.50;99.90;;;;;;4949880;28;20520;-74
2022/09/19 05:18:45;;;;;;;1.40;0.43;;;10.50;99.90;;;;;;4950430;28;20067;-75
2022/09/19 05:21:13;;;;;;;0.28;0.20;;;10.40;99.90;;;;;;4952361;28;20191;-74
2022/09/19 05:23:39;;;;;;;0.63;0.50;;;10.50;99.90;;;;;;4953924;28;20031;-75
2022/09/19 05:26:07;;;;;;;0.30;0.30;;;10.50;99.90;;;;;;4953205;28;20030;-74
2022/09/19 05:28:33;;;;;;;0.30;0.20;;;10.50;99.90;;;;;;4949420;28;20031;-74
2022/09/19 05:31:04;;;;;;;0.40;0.30;;;10.50;99.90;;;;;;4949645;28;20460;-74
2022/09/19 05:33:32;;;;;;;0.13;0.13;;;10.50;99.90;;;;;;4949179;28;20384;-75
2022/09/19 05:36:00;;;;;;;0.20;0.20;;;10.50;99.90;;;;;;4949688;29;20463;-74
2022/09/19 05:38:30;;;;;;;0.10;0.10;;;10.50;99.90;;;;;;4951669;28;20051;-74
2022/09/19 05:40:58;;;;;;;0.80;0.47;;;10.50;99.90;;;;;;4949261;29;20447;-75
2022/09/19 05:43:25;;;;;;;0.20;0.20;;;10.60;99.90;;;;;;4949782;28;20027;-75
2022/09/19 05:45:55;;;;;;;0.10;0.10;;;10.50;99.90;;;;;;4949703;28;20330;-75
2022/09/19 05:48:22;;;;;;;0.15;0.15;;;10.50;99.90;;;;;;4950710;28;20019;-75
2022/09/19 05:50:49;;;;;;;0.10;0.10;;;10.60;99.90;;;;;;4949699;28;20039;-75
2022/09/19 05:56:01;;;;;;;0.10;0.10;;;11.00;99.90;;;;;;4929046;29;20250;-75
2022/09/19 05:58:27;;;;;;;0.20;0.20;;;;;;;;;;4928962;29;20046;-76
2022/09/19 06:00:53;;;;;;;0.40;0.40;;;12.30;99.90;;;;;;4946965;29;20031;-77
2022/09/19 06:03:21;;;;;;;0.20;0.20;;;10.90;99.90;;;;;;4949679;28;20023;-77
2022/09/19 06:05:51;;;;;;;0.20;0.20;;;11.00;99.90;;;;;;4947808;29;20061;-77
2022/09/19 06:08:22;;;;;;;2.38;0.45;;;10.90;99.90;;;;;;4948331;28;20551;-77
2022/09/19 06:10:48;;;;;;;0.13;0.13;;;11.20;99.90;;;;;;4947819;28;20038;-77
2022/09/19 06:13:22;;;;;;;0.45;0.30;;;11.10;99.90;;;;;;4946327;28;20038;-76
2022/09/19 06:15:49;;;;;;;0.50;0.50;;;;;;;;;;4932748;28;20528;-77
2022/09/19 06:18:15;;;;;;;0.20;0.20;;;10.40;99.90;;;;;;4947524;28;20053;-76
2022/09/19 06:20:43;;;;;;;0.32;0.30;;;11.30;99.90;;;;;;4948309;28;20027;-77
2022/09/19 06:23:10;;;;;;;0.32;0.20;;;11.40;99.90;;;;;;4947357;29;20051;-76
2022/09/19 06:25:38;;;;;;;0.20;0.20;;;11.50;99.90;;;;;;4948118;28;20320;-76
2022/09/19 06:28:10;;;;;;;1.13;0.57;;;11.60;99.90;;;;;;4947860;28;20027;-74
2022/09/19 06:30:37;;;;;;;2.90;0.90;;;11.60;99.90;;;;;;4953380;28;20019;-77
2022/09/19 06:33:05;;;;;;;0.30;0.30;;;11.50;99.90;;;;;;4952635;29;20054;-76
2022/09/19 06:35:31;;;;;;;0.93;0.65;;;11.40;99.90;;;;;;4952557;28;20031;-76
2022/09/19 06:38:02;;;;;;;0.45;0.45;;;11.40;99.90;;;;;;4950221;28;20499;-77
2022/09/19 06:40:29;;;;;;;0.45;0.13;;;11.50;99.90;;;;;;4949243;28;20102;-77
2022/09/19 06:43:01;;;;;;;0.20;0.20;;;11.60;99.90;;;;;;4947391;28;20028;-76
2022/09/19 06:45:27;;;;;;;0.22;0.22;;;11.60;99.90;;;;;;4946739;28;20631;-75
2022/09/19 06:47:59;;;;;;;0.98;0.38;;;11.60;99.90;;;;;;4946786;28;20038;-76
2022/09/19 06:50:26;;;;;;;0.28;0.28;;;11.60;99.90;;;;;;4947450;28;20037;-76
2022/09/19 06:52:52;;;;;;;0.25;0.25;;;11.60;99.90;;;;;;4946938;28;20046;-76
2022/09/19 06:55:18;;;;;;;0.47;0.30;;;11.70;99.90;;;;;;4946563;29;20051;-76
2022/09/19 06:57:54;;;;;;;0.90;0.38;;;11.80;99.90;;;;;;4946553;29;20488;-77
2022/09/19 07:00:22;;;;;;;0.50;0.50;;;11.60;99.90;;;;;;4962922;28;20053;-76
2022/09/19 07:02:49;;;;;;;0.40;0.40;;;11.90;99.90;;;;;;4948134;28;20035;-75
2022/09/19 07:05:15;;;;;;;0.35;0.35;;;11.70;99.90;;;;;;4947787;28;20063;-75
2022/09/19 07:07:40;;;;;;;0.65;0.52;;;11.60;99.90;;;;;;4947388;28;20035;-75
2022/09/19 07:10:07;;;;;;;2.78;0.90;;;11.40;99.90;;;;;;4947422;28;20026;-74
2022/09/19 07:12:32;;;;;;;1.15;0.35;;;11.40;99.90;;;;;;4948576;28;20054;-77
2022/09/19 07:14:58;;;;;;;6.10;0.30;;;11.40;99.90;;;;;;4947809;29;20094;-76
2022/09/19 07:17:24;;;;;;;0.20;0.20;;;11.30;99.90;;;;;;4946972;28;20024;-76
2022/09/19 07:19:53;;;;;;;2.72;1.05;;;11.30;99.90;;;;;;4948147;28;20023;-76
2022/09/19 07:22:21;;;;;;;0.20;0.20;;;11.30;99.90;;;;;;4948222;28;20055;-75
2022/09/19 07:24:46;;;;;;;0.20;0.20;;;11.50;99.90;;;;;;4946587;29;20050;-77
2022/09/19 07:27:12;;;;;;;0.30;0.30;;;11.60;99.90;;;;;;4947936;29;20600;-74
2022/09/19 07:29:38;;;;;;;0.10;0.10;;;11.50;99.90;;;;;;4948673;29;20098;-76
2022/09/19 07:32:04;;;;;;;5.45;0.30;;;11.60;99.90;;;;;;4950779;28;20037;-75
2022/09/19 07:34:31;;;;;;;0.20;0.15;;;11.50;99.90;;;;;;4952294;28;20020;-75
2022/09/19 07:36:56;;;;;;;2.13;0.30;;;11.70;99.90;;;;;;4951157;28;20062;-75
2022/09/19 07:39:22;;;;;;;0.35;0.35;;;11.80;99.90;;;;;;4966704;28;20436;-75
2022/09/19 07:41:48;;;;;;;0.20;0.20;;;11.90;99.90;;;;;;4951591;29;20024;-75
2022/09/19 07:44:13;;;;;;;0.30;0.30;;;11.90;99.90;;;;;;4951883;28;20106;-75
2022/09/19 07:47:26;;;;;;;0.70;0.70;;;11.90;99.90;;;;;;4951222;28;20031;-75
2022/09/19 07:49:25;;;;;;;3.10;0.93;;;11.90;99.90;;;;;;4951387;28;20412;-75
2022/09/19 07:51:54;;;;;;;1.85;0.20;;;11.90;99.90;;;;;;4951325;28;20039;-75
2022/09/19 07:54:19;;;;;;;0.10;0.10;;;11.80;99.90;;;;;;4950953;28;20469;-75
2022/09/19 07:56:47;;;;;;;0.30;0.30;;;11.80;99.90;;;;;;4950787;28;20043;-75
2022/09/19 07:59:13;;;;;;;0.73;0.32;;;12.00;99.90;;;;;;4951608;28;20419;-75
2022/09/19 08:01:38;;;;;;;0.25;0.25;;;12.00;99.90;;;;;;4966092;28;20031;-75
2022/09/19 08:04:04;;;;;;;0.85;0.30;;;12.00;99.90;;;;;;4951207;28;20039;-75
2022/09/19 08:06:30;;;;;;;5.50;0.80;;;11.90;99.90;;;;;;4950931;29;20046;-74
2022/09/19 08:08:55;;;;;;;14.10;1.17;;;11.90;99.90;;;;;;4950926;28;20183;-76
2022/09/19 08:11:21;;;;;;;0.10;0.10;;;11.90;99.90;;;;;;4950755;28;20484;-74
2022/09/19 08:13:47;;;;;;;2.55;0.10;;;11.90;99.90;;;;;;4950416;29;20039;-75
2022/09/19 08:16:14;;;;;;;1.25;0.30;;;11.90;99.90;;;;;;4950959;29;20713;-75
2022/09/19 08:18:40;;;;;;;0.05;0.05;;;12.00;99.90;;;;;;4950507;28;20035;-74
2022/09/19 08:21:06;;;;;;;3.60;0.35;;;12.10;99.90;;;;;;4951320;28;20023;-75
2022/09/19 08:23:32;;;;;;;0.10;0.10;;;12.10;99.90;;;;;;4952146;28;20038;-75
2022/09/19 08:26:02;;;;;;;0.45;0.20;;;11.30;99.90;;;;;;4952909;28;20024;-75
2022/09/19 08:28:30;;;;;;;0.52;0.52;;;12.30;99.90;;;;;;4950822;28;20028;-75
2022/09/19 08:31:03;;;;;;;0.00;0.00;;;12.50;99.90;;;;;;4950729;28;20047;-74
2022/09/19 08:33:30;;;;;;;0.10;0.05;;;12.70;99.90;;;;;;4950147;28;20019;-74
2022/09/19 08:35:59;;;;;;;0.10;0.10;;;12.90;99.90;;;;;;4950458;28;20351;-75
2022/09/19 08:38:25;;;;;;;0.30;0.30;;;13.00;99.90;;;;;;4950159;28;20035;-75
2022/09/19 08:41:21;;;;;;;0.30;0.30;;;12.90;99.70;;;;;;4950126;28;20043;-75
2022/09/19 08:44:14;;;;;;;0.25;0.25;;;12.90;99.90;;;;;;4949030;28;20770;-75
2022/09/19 08:46:55;;;;;;;0.20;0.20;;;13.00;99.90;;;;;;4949355;29;20131;-75
2022/09/19 08:49:33;;;;;;;1.50;0.20;;;13.20;99.90;;;;;;4950265;28;20027;-74
2022/09/19 08:52:44;;;;;;;0.20;0.13;;;13.30;99.60;;;;;;4950632;28;20597;-75
2022/09/19 08:55:31;;;;;;;0.20;0.20;;;13.50;97.20;;;;;;4949103;28;20043;-75
2022/09/19 08:58:01;;;;;;;0.98;0.57;;;13.80;95.90;;;;;;4950515;28;20047;-75
2022/09/19 09:00:35;;;;;;;0.35;0.17;;;13.80;93.90;;;;;;4951792;29;20047;-75
2022/09/19 09:03:05;;;;;;;2.38;0.28;;;13.50;93.70;;;;;;4958042;28;20286;-77
2022/09/19 09:05:45;;;;;;;0.40;0.40;;;13.40;93.50;;;;;;4932173;29;20540;-77
2022/09/19 09:08:32;;;;;;;1.08;0.13;;;13.20;92.30;;;;;;4932681;29;20050;-77
2022/09/19 09:11:22;;;;;;;0.28;0.28;;;13.10;93.00;;;;;;4946495;28;20078;-78
2022/09/19 09:14:02;;;;;;;4.72;0.80;;;12.90;93.40;;;;;;4930392;29;20083;-76
2022/09/19 09:16:38;;;;;;;;;;;13.10;96.80;;;;;;4931248;29;20023;-77
2022/09/19 09:19:24;;;;;;;0.17;0.17;;;13.10;95.30;;;;;;4930860;29;19915;-74
2022/09/19 09:22:02;;;;;;;1.08;0.85;;;13.30;93.20;;;;;;4930473;29;20091;-74
2022/09/19 09:24:38;;;;;;;0.25;0.10;;;13.50;92.20;;;;;;4933636;29;20031;-75
2022/09/19 09:27:16;;;;;;;0.20;0.20;;;13.50;91.70;;;;;;4950093;28;20035;-77
2022/09/19 09:29:51;;;;;;;0.75;0.40;;;13.30;92.40;;;;;;4951802;28;20020;-77
2022/09/19 09:32:30;;;;;;;0.30;0.30;;;13.30;95.80;;;;;;4950133;28;20023;-77
2022/09/19 09:35:03;;;;;;;0.38;0.38;;;13.40;92.70;;;;;;4964430;28;20042;-77
2022/09/19 09:37:31;;;;;;;0.05;0.03;;;13.40;92.70;;;;;;4948887;28;20066;-77
2022/09/19 09:43:09;;;;;;;0.32;0.10;;;13.30;91.00;;;;;;4949341;29;20122;-74
2022/09/19 09:45:48;;;;;;;3.40;0.60;;;13.20;92.00;;;;;;4949121;28;20114;-75
2022/09/19 09:48:20;;;;;;;4.38;0.30;;;13.30;91.40;;;;;;4949132;28;20436;-77
2022/09/19 09:51:07;;;;;;;1.35;0.88;;;13.40;92.40;;;;;;4949167;28;20110;-77
2022/09/19 09:53:57;;;;;;;0.00;0.00;;;13.50;90.70;;;;;;4950277;28;20031;-74
2022/09/19 09:56:26;;;;;;;1.92;1.17;;;13.70;92.30;;;;;;4948544;29;20043;-77
2022/09/19 09:59:01;;;;;;;0.10;0.10;;;13.60;89.60;;;;;;4944823;28;20444;-74
2022/09/19 10:05:08;;;;;;;4.13;0.32;;;13.70;90.60;;;;;;4941752;29;20090;-74
2022/09/19 10:07:43;;;;;;;0.73;0.20;;;13.50;90.80;;;;;;4948466;28;20496;-74
2022/09/19 10:10:15;;;;;;;1.50;0.63;;;13.50;86.60;;;;;;4948399;28;20023;-75
2022/09/19 10:13:07;;;;;;;0.00;0.00;;;13.70;89.20;;;;;;4948224;28;20135;-74
2022/09/19 10:15:39;;;;;;;0.45;0.45;;;13.70;90.00;;;;;;4948674;28;20077;-75
2022/09/19 10:18:09;;;;;;;0.30;0.30;;;13.80;87.80;;;;;;4948382;29;20046;-75
2022/09/19 10:20:49;;;;;;;1.95;0.28;;;14.50;90.70;;;;;;4949051;29;20084;-74
2022/09/19 10:23:18;;;;;;;;;;;14.00;90.50;;;;;;4948879;29;20050;-74
2022/09/19 10:25:46;;;;;;;0.20;0.20;;;14.10;87.40;;;;;;4947879;28;19957;-74
2022/09/19 10:28:22;;;;;;;0.28;0.20;;;14.30;83.70;;;;;;4948357;29;20027;-74
2022/09/19 10:31:00;;;;;;;0.45;0.45;;;14.60;86.20;;;;;;4948662;29;20023;-74
2022/09/19 10:33:48;;;;;;;0.17;0.17;;;14.60;86.40;;;;;;4964073;28;20063;-74
2022/09/19 10:36:23;;;;;;;0.75;0.63;;;14.60;84.70;;;;;;4949324;29;20106;-75
2022/09/19 10:38:54;;;;;;;3.55;2.05;;;14.70;81.90;;;;;;4948226;29;20395;-76
2022/09/19 10:41:23;;;;;;;0.00;0.00;;;14.80;82.10;;;;;;4949731;28;20539;-75
2022/09/19 10:43:50;;;;;;;0.35;0.20;;;14.80;82.70;;;;;;4949767;28;20539;-77
2022/09/19 10:46:19;;;;;;;0.88;0.47;;;14.60;78.60;;;;;;4948795;29;20287;-75
2022/09/19 10:48:56;;;;;;;0.68;0.30;;;15.80;79.80;;;;;;4948452;29;20027;-76
2022/09/19 10:51:29;;;;;;;0.38;0.38;;;14.80;76.60;;;;;;4947069;28;20036;-75
2022/09/19 10:53:59;;;;;;;1.10;0.20;;;14.40;75.70;;;;;;4931812;28;20118;-75
2022/09/19 10:56:32;;;;;;;1.65;0.13;;;14.40;79.70;;;;;;4927101;29;20052;-76
2022/09/19 10:59:20;;;;;;;0.20;0.20;;;14.40;75.80;;;;;;4942401;28;20044;-76
2022/09/19 11:02:25;;;;;;;0.38;0.15;;;14.50;79.70;;;;;;4928538;29;20557;-76
2022/09/19 11:05:00;;;;;;;0.35;0.13;;;14.60;74.40;;;;;;4924678;29;20442;-74
2022/09/19 11:07:30;;;;;;;0.80;0.25;;;14.60;74.50;;;;;;4927643;29;20031;-75
2022/09/19 11:10:01;;;;;;;0.10;0.10;;;14.50;74.20;;;;;;4941213;29;20523;-74
2022/09/19 11:12:33;;;;;;;3.13;1.00;;;14.70;73.90;;;;;;4962469;28;20486;-73
2022/09/19 11:15:00;;;;;;;0.00;0.00;;;;;;;;;;4930178;29;20035;-75
2022/09/19 11:17:32;;;;;;;2.25;0.20;;;15.00;74.20;;;;;;4930637;29;20738;-75
2022/09/19 11:20:29;;;;;;;0.55;0.25;;;15.00;75.90;;;;;;4937084;29;20488;-75
2022/09/19 11:23:32;;;;;;;0.10;0.10;;;15.00;71.30;;;;;;4952835;29;20019;-76
2022/09/19 11:26:08;;;;;;;0.38;0.38;;;15.10;72.10;;;;;;4952975;28;20034;-77
2022/09/19 11:28:37;;;;;;;0.52;0.40;;;15.10;73.70;;;;;;4951804;29;20023;-77
2022/09/19 11:31:22;;;;;;;2.90;0.22;;;15.20;76.70;;;;;;4953121;28;20039;-78
2022/09/19 11:33:58;;;;;;;0.50;0.50;;;15.30;74.80;;;;;;4952459;29;20038;-77
2022/09/19 11:36:31;;;;;;;1.45;0.30;;;15.40;70.00;;;;;;4951372;28;20034;-77
2022/09/19 11:39:17;;;;;;;0.30;0.22;;;15.20;69.10;;;;;;4951635;29;20038;-77
2022/09/19 11:42:07;;;;;;;0.20;0.20;;;15.40;69.90;;;;;;4951963;28;20027;-77
2022/09/19 11:44:43;;;;;;;2.67;0.65;;;15.40;68.90;;;;;;4952626;28;20042;-75
2022/09/19 11:47:46;;;;;;;0.00;0.00;;;15.60;68.70;;;;;;4951889;28;20023;-75
2022/09/19 11:50:43;;;;;;;0.38;0.25;;;15.60;67.00;;;;;;4952766;28;20106;-75
2022/09/19 11:53:21;;;;;;;0.20;0.20;;;15.60;66.50;;;;;;4951364;29;20066;-75
2022/09/19 11:56:13;;;;;;;0.95;0.17;;;16.10;67.90;;;;;;4951624;28;20051;-76
2022/09/19 11:58:46;;;;;;;0.20;0.20;;;16.70;66.90;;;;;;4951056;28;20031;-76
2022/09/19 12:01:36;;;;;;;1.90;0.40;;;17.60;63.30;;;;;;4950224;28;20114;-75
2022/09/19 12:04:50;;;;;;;0.30;0.30;;;18.40;60.30;;;;;;4966122;28;20483;-75
2022/09/19 12:07:29;;;;;;;0.40;0.40;;;18.30;58.20;;;;;;4951039;28;20031;-75
2022/09/19 12:10:18;;;;;;;0.22;0.22;;;18.50;58.70;;;;;;4965941;28;20422;-76
2022/09/19 12:13:08;;;;;;;1.15;0.20;;;19.80;55.70;;;;;;4951249;28;20588;-75
2022/09/19 12:15:37;;;;;;;0.00;0.00;;;19.80;51.30;;;;;;4951064;28;20090;-75
2022/09/19 12:18:16;;;;;;;;;;;20.20;52.00;;;;;;4950659;28;20042;-75
2022/09/19 12:20:47;;;;;;;0.13;0.13;;;20.60;49.60;;;;;;4950007;28;19914;-75
2022/09/19 12:26:21;;;;;;;2.70;0.43;;;20.60;48.70;;;;;;4960513;29;20054;-75
2022/09/19 12:28:54;;;;;;;4.80;0.43;;;21.10;49.10;;;;;;4966479;28;20023;-74
2022/09/19 12:31:27;;;;;;;1.50;0.52;;;21.40;46.00;;;;;;4949814;29;20027;-75
2022/09/19 12:34:11;;;;;;;0.25;0.25;;;21.70;48.60;;;;;;4949473;29;20039;-74
2022/09/19 12:36:52;;;;;;;0.65;0.50;;;21.30;46.40;;;;;;4931416;29;20059;-74
2022/09/19 12:39:21;;;;;;;0.10;0.10;;;21.70;46.10;;;;;;4930905;29;20043;-75
2022/09/19 12:41:57;;;;;;;0.17;0.15;;;22.20;45.90;;;;;;4945216;29;20027;-75
2022/09/19 12:44:36;;;;;;;1.15;0.47;;;22.00;45.50;;;;;;4931403;29;20032;-76
2022/09/19 12:47:15;;;;;;;6.72;0.80;;;22.20;45.40;;;;;;4945585;29;20039;-75
2022/09/19 12:50:08;;;;;;;0.10;0.10;;;22.40;44.20;;;;;;4945773;29;20067;-74
2022/09/19 12:52:44;;;;;;;0.55;0.10;;;22.30;41.80;;;;;;4931139;29;20102;-75
2022/09/19 12:55:16;;;;;;;0.98;0.52;;;22.90;41.80;;;;;;4958682;28;20463;-75
2022/09/19 12:57:56;;;;;;;0.00;0.00;;;23.10;43.00;;;;;;4964107;28;20488;-75
2022/09/19 13:00:22;;;;;;;1.05;0.47;;;23.60;41.00;;;;;;4948227;29;20031;-75
2022/09/19 13:03:04;;;;;;;0.00;0.00;;;23.90;39.90;;;;;;4950013;28;20038;-74
2022/09/19 13:05:37;;;;;;;0.20;0.20;;;23.80;39.00;;;;;;4949504;28;20027;-75
2022/09/19 13:08:08;;;;;;;0.00;0.00;;;24.10;38.50;;;;;;4949422;28;20023;-75
2022/09/19 13:10:48;;;;;;;0.00;0.00;;;24.30;38.80;;;;;;4964000;28;20019;-75
2022/09/19 13:13:33;;;;;;;1.40;0.40;;;24.10;38.70;;;;;;4948236;29;20510;-75
2022/09/19 13:16:05;;;;;;;0.20;0.20;;;23.70;41.00;;;;;;4948634;28;20031;-74
2022/09/19 13:24:11;;;;;;;0.15;0.10;;;24.70;39.30;;;;;;4949144;29;20050;-75
2022/09/19 13:26:38;;;;;;;0.28;0.28;;;26.00;39.20;;;;;;4946769;29;20028;-74
2022/09/19 13:29:24;;;;;;;0.45;0.22;;;25.80;43.50;;;;;;4961964;28;20031;-76
2022/09/19 13:31:52;;;;;;;1.55;0.10;;;25.60;40.50;;;;;;4964365;28;20065;-75
2022/09/19 13:34:33;;;;;;;0.43;0.43;;;25.10;39.30;;;;;;4949863;28;20054;-75
2022/09/19 13:37:23;;;;;;;2.03;0.10;;;24.70;41.00;;;;;;4948437;29;20027;-76
2022/09/19 13:40:13;;;;;;;0.30;0.30;;;23.40;40.60;;;;;;4964409;28;20035;-76
2022/09/19 13:43:06;;;;;;;2.17;0.20;;;23.10;42.00;;;;;;4964668;28;20365;-76
2022/09/19 13:45:54;;;;;;;0.32;0.17;;;22.80;41.20;;;;;;4948789;28;20019;-75